sensor_id;sensor_type;location;lat;lon;timestamp;pressure;altitude;pressure_sealevel;temperature;humidity
68107;BME280;54892;47.488;19.026;2023-01-27T00:01:05;100069.22;;;1.73;73.06
68107;BME280;54892;47.488;19.026;2023-01-27T00:04:09;100069.59;;;1.63;73.44
68107;BME280;54892;47.488;19.026;2023-01-27T00:07:15;100070.78;;;1.61;73.41
68107;BME280;54892;47.488;19.026;2023-01-27T00:10:19;100067.19;;;1.62;73.54
68107;BME280;54892;47.488;19.026;2023-01-27T00:13:22;100065.00;;;1.65;73.56
68107;BME280;54892;47.488;19.026;2023-01-27T00:16:33;100065.97;;;1.58;74.15
68107;BME280;54892;47.488;19.026;2023-01-27T00:19:37;100069.78;;;1.62;74.35
68107;BME280;54892;47.488;19.026;2023-01-27T00:22:41;100059.78;;;1.65;74.62
68107;BME280;54892;47.488;19.026;2023-01-27T00:26:09;100061.78;;;1.63;74.71
68107;BME280;54892;47.488;19.026;2023-01-27T00:29:12;100063.59;;;1.63;75.01
68107;BME280;54892;47.488;19.026;2023-01-27T00:32:16;100059.75;;;1.52;75.70
68107;BME280;54892;47.488;19.026;2023-01-27T00:35:36;100049.53;;;1.57;75.86
68107;BME280;54892;47.488;19.026;2023-01-27T00:38:40;100057.53;;;1.49;75.64
68107;BME280;54892;47.488;19.026;2023-01-27T00:41:44;100052.94;;;1.51;75.58
68107;BME280;54892;47.488;19.026;2023-01-27T00:44:47;100058.09;;;1.44;75.98
68107;BME280;54892;47.488;19.026;2023-01-27T00:48:04;100057.53;;;1.56;75.76
68107;BME280;54892;47.488;19.026;2023-01-27T00:51:08;100060.34;;;1.54;76.13
68107;BME280;54892;47.488;19.026;2023-01-27T00:54:13;100060.16;;;1.62;75.90
68107;BME280;54892;47.488;19.026;2023-01-27T00:57:16;100048.38;;;1.66;75.73
68107;BME280;54892;47.488;19.026;2023-01-27T01:00:20;100056.38;;;1.65;76.15
68107;BME280;54892;47.488;19.026;2023-01-27T01:03:23;100054.22;;;1.75;75.71
68107;BME280;54892;47.488;19.026;2023-01-27T01:06:27;100053.38;;;1.68;75.66
68107;BME280;54892;47.488;19.026;2023-01-27T01:09:31;100054.72;;;1.57;75.70
68107;BME280;54892;47.488;19.026;2023-01-27T01:12:34;100055.91;;;1.48;76.35
68107;BME280;54892;47.488;19.026;2023-01-27T01:15:37;100051.03;;;1.31;76.34
68107;BME280;54892;47.488;19.026;2023-01-27T01:18:41;100058.00;;;1.24;76.70
68107;BME280;54892;47.488;19.026;2023-01-27T01:21:44;100044.63;;;1.34;76.86
68107;BME280;54892;47.488;19.026;2023-01-27T01:24:49;100048.66;;;1.36;76.95
68107;BME280;54892;47.488;19.026;2023-01-27T01:27:52;100044.13;;;1.52;76.42
68107;BME280;54892;47.488;19.026;2023-01-27T01:30:58;100047.72;;;1.51;76.42
68107;BME280;54892;47.488;19.026;2023-01-27T01:34:05;100049.75;;;1.56;76.65
68107;BME280;54892;47.488;19.026;2023-01-27T01:37:08;100047.72;;;1.51;77.01
68107;BME280;54892;47.488;19.026;2023-01-27T01:40:13;100034.53;;;1.59;76.98
68107;BME280;54892;47.488;19.026;2023-01-27T01:43:16;100042.56;;;1.64;76.88
68107;BME280;54892;47.488;19.026;2023-01-27T01:46:21;100043.09;;;1.46;76.68
68107;BME280;54892;47.488;19.026;2023-01-27T01:49:26;100038.88;;;1.39;77.06
68107;BME280;54892;47.488;19.026;2023-01-27T01:52:29;100042.06;;;1.41;77.27
68107;BME280;54892;47.488;19.026;2023-01-27T01:55:34;100038.88;;;1.39;77.06
68107;BME280;54892;47.488;19.026;2023-01-27T01:58:38;100036.69;;;1.42;76.44
68107;BME280;54892;47.488;19.026;2023-01-27T02:01:44;100038.09;;;1.45;76.28
68107;BME280;54892;47.488;19.026;2023-01-27T02:04:48;100040.25;;;1.34;75.20
68107;BME280;54892;47.488;19.026;2023-01-27T02:07:54;100030.84;;;1.33;73.93
68107;BME280;54892;47.488;19.026;2023-01-27T02:11:00;100030.03;;;1.33;74.59
68107;BME280;54892;47.488;19.026;2023-01-27T02:14:04;100025.66;;;1.40;73.94
68107;BME280;54892;47.488;19.026;2023-01-27T02:17:07;100023.84;;;1.41;73.12
68107;BME280;54892;47.488;19.026;2023-01-27T02:20:12;100010.37;;;1.24;72.15
68107;BME280;54892;47.488;19.026;2023-01-27T02:23:25;100001.22;;;1.28;71.37
68107;BME280;54892;47.488;19.026;2023-01-27T02:26:30;100009.63;;;1.30;70.76
68107;BME280;54892;47.488;19.026;2023-01-27T02:29:35;99998.81;;;1.33;71.49
68107;BME280;54892;47.488;19.026;2023-01-27T02:32:38;100004.22;;;1.31;70.71
68107;BME280;54892;47.488;19.026;2023-01-27T02:35:42;100006.03;;;1.31;70.77
68107;BME280;54892;47.488;19.026;2023-01-27T02:38:47;99996.00;;;1.21;69.46
68107;BME280;54892;47.488;19.026;2023-01-27T02:41:52;99980.00;;;1.24;69.60
68107;BME280;54892;47.488;19.026;2023-01-27T02:44:56;99979.22;;;1.30;69.36
68107;BME280;54892;47.488;19.026;2023-01-27T02:48:00;99971.97;;;1.19;68.46
68107;BME280;54892;47.488;19.026;2023-01-27T02:51:04;99979.38;;;1.15;68.61
68107;BME280;54892;47.488;19.026;2023-01-27T02:54:07;99980.53;;;1.13;68.71
68107;BME280;54892;47.488;19.026;2023-01-27T02:57:11;99970.94;;;1.06;68.53
68107;BME280;54892;47.488;19.026;2023-01-27T03:00:15;99973.91;;;1.03;68.87
68107;BME280;54892;47.488;19.026;2023-01-27T03:03:18;99973.91;;;1.03;68.71
68107;BME280;54892;47.488;19.026;2023-01-27T03:06:22;99964.91;;;1.06;69.13
68107;BME280;54892;47.488;19.026;2023-01-27T03:09:24;99968.94;;;1.09;68.59
68107;BME280;54892;47.488;19.026;2023-01-27T03:12:29;99966.69;;;0.99;68.99
68107;BME280;54892;47.488;19.026;2023-01-27T03:15:33;99959.12;;;1.11;68.77
68107;BME280;54892;47.488;19.026;2023-01-27T03:18:53;99956.31;;;1.05;68.87
68107;BME280;54892;47.488;19.026;2023-01-27T03:21:57;99959.69;;;0.99;68.83
68107;BME280;54892;47.488;19.026;2023-01-27T03:25:04;99955.31;;;1.00;68.98
68107;BME280;54892;47.488;19.026;2023-01-27T03:28:09;99948.03;;;0.88;69.35
68107;BME280;54892;47.488;19.026;2023-01-27T03:31:12;99952.06;;;0.91;69.73
68107;BME280;54892;47.488;19.026;2023-01-27T03:34:22;99944.25;;;0.91;69.86
68107;BME280;54892;47.488;19.026;2023-01-27T03:37:26;99940.81;;;0.84;70.24
68107;BME280;54892;47.488;19.026;2023-01-27T03:40:46;99937.59;;;0.82;70.35
68107;BME280;54892;47.488;19.026;2023-01-27T03:44:09;99940.97;;;0.75;70.48
68107;BME280;54892;47.488;19.026;2023-01-27T03:47:30;99939.41;;;0.81;70.71
68107;BME280;54892;47.488;19.026;2023-01-27T03:50:34;99934.97;;;0.75;70.75
68107;BME280;54892;47.488;19.026;2023-01-27T03:53:39;99930.72;;;0.67;70.93
68107;BME280;54892;47.488;19.026;2023-01-27T03:56:43;99928.97;;;0.74;70.79
68107;BME280;54892;47.488;19.026;2023-01-27T03:59:50;99926.19;;;0.76;70.78
68107;BME280;54892;47.488;19.026;2023-01-27T04:02:53;99918.34;;;0.69;70.60
68107;BME280;54892;47.488;19.026;2023-01-27T04:06:15;99917.37;;;0.70;70.70
68107;BME280;54892;47.488;19.026;2023-01-27T04:09:36;99917.78;;;0.74;70.66
68107;BME280;54892;47.488;19.026;2023-01-27T04:12:40;99922.34;;;0.72;70.77
68107;BME280;54892;47.488;19.026;2023-01-27T04:15:44;99918.56;;;0.68;71.16
68107;BME280;54892;47.488;19.026;2023-01-27T04:18:48;99917.37;;;0.70;70.91
68107;BME280;54892;47.488;19.026;2023-01-27T04:21:51;99914.31;;;0.60;71.02
68107;BME280;54892;47.488;19.026;2023-01-27T04:24:55;99917.72;;;0.60;71.02
68107;BME280;54892;47.488;19.026;2023-01-27T04:27:58;99920.94;;;0.69;70.75
68107;BME280;54892;47.488;19.026;2023-01-27T04:31:03;99916.91;;;0.60;70.53
68107;BME280;54892;47.488;19.026;2023-01-27T04:34:06;99923.78;;;0.74;70.57
68107;BME280;54892;47.488;19.026;2023-01-27T04:37:09;99921.19;;;0.74;70.41
68107;BME280;54892;47.488;19.026;2023-01-27T04:40:13;99923.41;;;0.78;70.39
68107;BME280;54892;47.488;19.026;2023-01-27T04:43:16;99923.78;;;0.74;70.28
68107;BME280;54892;47.488;19.026;2023-01-27T04:46:21;99927.19;;;0.75;70.34
68107;BME280;54892;47.488;19.026;2023-01-27T04:49:24;99922.75;;;0.69;70.16
68107;BME280;54892;47.488;19.026;2023-01-27T04:52:28;99921.78;;;0.70;70.44
68107;BME280;54892;47.488;19.026;2023-01-27T04:55:31;99935.97;;;0.74;70.29
68107;BME280;54892;47.488;19.026;2023-01-27T04:58:35;99936.34;;;0.71;70.54
68107;BME280;54892;47.488;19.026;2023-01-27T05:01:39;99937.69;;;0.60;70.87
68107;BME280;54892;47.488;19.026;2023-01-27T05:04:42;99940.09;;;0.62;71.00
68107;BME280;54892;47.488;19.026;2023-01-27T05:07:46;99938.31;;;0.62;70.99
68107;BME280;54892;47.488;19.026;2023-01-27T05:10:50;99940.91;;;0.62;71.13
68107;BME280;54892;47.488;19.026;2023-01-27T05:13:54;99941.72;;;0.69;70.90
68107;BME280;54892;47.488;19.026;2023-01-27T05:16:58;99938.91;;;0.64;70.44
68107;BME280;54892;47.488;19.026;2023-01-27T05:20:01;99937.50;;;0.62;70.63
68107;BME280;54892;47.488;19.026;2023-01-27T05:23:05;99932.09;;;0.63;70.54
68107;BME280;54892;47.488;19.026;2023-01-27T05:26:26;99933.44;;;0.52;70.78
68107;BME280;54892;47.488;19.026;2023-01-27T05:29:30;99926.81;;;0.50;70.45
68107;BME280;54892;47.488;19.026;2023-01-27T05:32:35;99930.03;;;0.52;70.79
68107;BME280;54892;47.488;19.026;2023-01-27T05:35:38;99931.47;;;0.54;70.37
68107;BME280;54892;47.488;19.026;2023-01-27T05:38:42;99934.25;;;0.53;70.60
68107;BME280;54892;47.488;19.026;2023-01-27T05:41:45;99926.91;;;0.63;70.21
68107;BME280;54892;47.488;19.026;2023-01-27T05:44:48;99934.31;;;0.66;70.00
68107;BME280;54892;47.488;19.026;2023-01-27T05:47:53;99928.12;;;0.67;69.82
68107;BME280;54892;47.488;19.026;2023-01-27T05:50:56;99942.88;;;0.60;69.15
68107;BME280;54892;47.488;19.026;2023-01-27T05:54:00;99935.47;;;0.57;69.77
68107;BME280;54892;47.488;19.026;2023-01-27T05:57:03;99929.25;;;0.51;69.47
68107;BME280;54892;47.488;19.026;2023-01-27T06:00:07;99932.84;;;0.50;69.46
68107;BME280;54892;47.488;19.026;2023-01-27T06:03:12;99935.84;;;0.54;69.27
68107;BME280;54892;47.488;19.026;2023-01-27T06:06:16;99938.03;;;0.50;68.79
68107;BME280;54892;47.488;19.026;2023-01-27T06:09:19;99942.38;;;0.43;69.29
68107;BME280;54892;47.488;19.026;2023-01-27T06:12:23;99929.25;;;0.51;68.91
68107;BME280;54892;47.488;19.026;2023-01-27T06:15:26;99929.88;;;0.53;68.14
68107;BME280;54892;47.488;19.026;2023-01-27T06:18:30;99929.03;;;0.53;68.17
68107;BME280;54892;47.488;19.026;2023-01-27T06:21:35;99933.25;;;0.54;67.54
68107;BME280;54892;47.488;19.026;2023-01-27T06:24:38;99914.03;;;0.48;67.08
68107;BME280;54892;47.488;19.026;2023-01-27T06:27:42;99917.66;;;0.54;67.16
68107;BME280;54892;47.488;19.026;2023-01-27T06:30:46;99920.50;;;0.59;67.10
68107;BME280;54892;47.488;19.026;2023-01-27T06:33:50;99926.91;;;0.63;66.30
68107;BME280;54892;47.488;19.026;2023-01-27T06:36:53;99924.31;;;0.63;65.58
68107;BME280;54892;47.488;19.026;2023-01-27T06:39:57;99934.53;;;0.65;65.09
68107;BME280;54892;47.488;19.026;2023-01-27T06:43:00;99932.56;;;0.73;64.89
68107;BME280;54892;47.488;19.026;2023-01-27T06:46:03;99925.59;;;0.81;64.34
68107;BME280;54892;47.488;19.026;2023-01-27T06:49:08;99931.38;;;0.76;64.34
68107;BME280;54892;47.488;19.026;2023-01-27T06:52:11;99930.63;;;0.82;63.62
68107;BME280;54892;47.488;19.026;2023-01-27T06:55:15;99936.00;;;0.81;63.48
68107;BME280;54892;47.488;19.026;2023-01-27T06:58:19;99943.78;;;0.81;63.51
68107;BME280;54892;47.488;19.026;2023-01-27T07:01:23;99933.91;;;0.98;63.73
68107;BME280;54892;47.488;19.026;2023-01-27T07:04:27;99934.84;;;0.90;62.77
68107;BME280;54892;47.488;19.026;2023-01-27T07:07:30;99937.91;;;1.00;62.63
68107;BME280;54892;47.488;19.026;2023-01-27T07:10:34;99931.28;;;0.98;62.90
68107;BME280;54892;47.488;19.026;2023-01-27T07:13:37;99936.28;;;0.99;62.99
68107;BME280;54892;47.488;19.026;2023-01-27T07:16:40;99936.94;;;1.15;62.65
68107;BME280;54892;47.488;19.026;2023-01-27T07:19:44;99931.75;;;1.15;62.44
68107;BME280;54892;47.488;19.026;2023-01-27T07:22:47;99939.41;;;1.23;61.48
68107;BME280;54892;47.488;19.026;2023-01-27T07:25:51;99937.94;;;1.14;62.35
68107;BME280;54892;47.488;19.026;2023-01-27T07:28:54;99942.00;;;1.23;62.24
68107;BME280;54892;47.488;19.026;2023-01-27T07:31:58;99951.59;;;1.29;62.23
68107;BME280;54892;47.488;19.026;2023-01-27T07:35:02;99946.78;;;1.26;62.34
68107;BME280;54892;47.488;19.026;2023-01-27T07:38:06;99949.97;;;1.21;62.88
68107;BME280;54892;47.488;19.026;2023-01-27T07:41:09;99944.38;;;1.18;61.59
68107;BME280;54892;47.488;19.026;2023-01-27T07:44:13;99948.81;;;1.24;62.82
68107;BME280;54892;47.488;19.026;2023-01-27T07:47:16;99937.59;;;1.24;61.13
68107;BME280;54892;47.488;19.026;2023-01-27T07:50:21;99933.22;;;1.31;62.34
68107;BME280;54892;47.488;19.026;2023-01-27T07:53:25;99929.78;;;1.24;62.53
68107;BME280;54892;47.488;19.026;2023-01-27T07:56:28;99929.41;;;1.33;62.28
68107;BME280;54892;47.488;19.026;2023-01-27T07:59:32;99921.84;;;1.39;61.96
68107;BME280;54892;47.488;19.026;2023-01-27T08:02:36;99929.03;;;1.36;61.12
68107;BME280;54892;47.488;19.026;2023-01-27T08:05:41;99934.63;;;1.33;61.71
68107;BME280;54892;47.488;19.026;2023-01-27T08:08:44;99943.81;;;1.36;61.77
68107;BME280;54892;47.488;19.026;2023-01-27T08:11:47;99939.87;;;1.54;62.03
68107;BME280;54892;47.488;19.026;2023-01-27T08:14:51;99943.69;;;1.51;61.70
68107;BME280;54892;47.488;19.026;2023-01-27T08:17:54;99943.88;;;1.56;60.66
68107;BME280;54892;47.488;19.026;2023-01-27T08:20:59;99939.09;;;1.53;60.64
68107;BME280;54892;47.488;19.026;2023-01-27T08:24:03;99939.47;;;1.50;60.97
68107;BME280;54892;47.488;19.026;2023-01-27T08:27:06;99941.06;;;1.51;61.10
68107;BME280;54892;47.488;19.026;2023-01-27T08:30:10;99946.28;;;1.51;60.93
68107;BME280;54892;47.488;19.026;2023-01-27T08:33:14;99947.50;;;1.62;60.67
68107;BME280;54892;47.488;19.026;2023-01-27T08:36:19;99946.09;;;1.59;60.01
68107;BME280;54892;47.488;19.026;2023-01-27T08:39:22;99946.31;;;1.64;60.31
68107;BME280;54892;47.488;19.026;2023-01-27T08:42:25;99948.69;;;1.66;60.50
68107;BME280;54892;47.488;19.026;2023-01-27T08:45:28;99948.53;;;1.74;60.74
68107;BME280;54892;47.488;19.026;2023-01-27T08:48:31;99954.94;;;1.78;60.11
68107;BME280;54892;47.488;19.026;2023-01-27T08:51:36;99952.53;;;1.77;59.97
68107;BME280;54892;47.488;19.026;2023-01-27T08:54:40;99959.53;;;1.70;57.75
68107;BME280;54892;47.488;19.026;2023-01-27T08:57:43;99962.31;;;1.68;57.73
68107;BME280;54892;47.488;19.026;2023-01-27T09:00:46;99963.94;;;1.69;57.54
68107;BME280;54892;47.488;19.026;2023-01-27T09:03:50;99961.72;;;1.73;57.60
68107;BME280;54892;47.488;19.026;2023-01-27T09:06:54;99962.56;;;1.80;57.42
68107;BME280;54892;47.488;19.026;2023-01-27T09:09:58;99961.78;;;1.86;57.59
68107;BME280;54892;47.488;19.026;2023-01-27T09:13:14;99976.34;;;1.87;57.76
68107;BME280;54892;47.488;19.026;2023-01-27T09:16:17;99970.97;;;1.89;57.89
68107;BME280;54892;47.488;19.026;2023-01-27T09:19:21;99973.75;;;1.80;57.79
68107;BME280;54892;47.488;19.026;2023-01-27T09:22:25;99977.56;;;1.78;58.35
68107;BME280;54892;47.488;19.026;2023-01-27T09:25:29;99974.16;;;1.71;59.19
68107;BME280;54892;47.488;19.026;2023-01-27T09:28:32;99980.16;;;1.78;59.52
68107;BME280;54892;47.488;19.026;2023-01-27T09:31:35;99982.53;;;1.66;60.47
68107;BME280;54892;47.488;19.026;2023-01-27T09:34:39;99980.53;;;1.68;60.83
68107;BME280;54892;47.488;19.026;2023-01-27T09:37:43;99974.72;;;1.73;60.34
68107;BME280;54892;47.488;19.026;2023-01-27T09:40:54;99979.34;;;1.71;60.97
68107;BME280;54892;47.488;19.026;2023-01-27T09:44:05;99971.31;;;1.65;60.97
68107;BME280;54892;47.488;19.026;2023-01-27T09:50:38;99972.19;;;1.86;61.29
68107;BME280;54892;47.488;19.026;2023-01-27T09:53:58;99969.53;;;1.73;61.66
68107;BME280;54892;47.488;19.026;2023-01-27T09:57:08;99978.13;;;1.66;62.05
68107;BME280;54892;47.488;19.026;2023-01-27T10:00:28;99969.94;;;1.63;62.37
68107;BME280;54892;47.488;19.026;2023-01-27T10:03:45;99972.06;;;1.46;63.03
68107;BME280;54892;47.488;19.026;2023-01-27T10:06:54;99969.31;;;1.54;63.00
68107;BME280;54892;47.488;19.026;2023-01-27T10:10:07;99965.28;;;1.58;63.05
68107;BME280;54892;47.488;19.026;2023-01-27T10:13:15;99967.75;;;1.73;63.07
68107;BME280;54892;47.488;19.026;2023-01-27T10:16:26;99975.94;;;1.70;63.57
68107;BME280;54892;47.488;19.026;2023-01-27T10:19:40;99961.72;;;1.79;63.62
68107;BME280;54892;47.488;19.026;2023-01-27T10:22:48;99966.47;;;1.42;65.68
68107;BME280;54892;47.488;19.026;2023-01-27T10:25:57;99960.66;;;1.47;65.90
68107;BME280;54892;47.488;19.026;2023-01-27T10:29:05;99970.87;;;1.48;66.13
68107;BME280;54892;47.488;19.026;2023-01-27T10:32:12;99964.66;;;1.49;66.27
68107;BME280;54892;47.488;19.026;2023-01-27T10:35:19;99973.06;;;1.45;66.24
68107;BME280;54892;47.488;19.026;2023-01-27T10:38:28;99967.69;;;1.53;66.31
68107;BME280;54892;47.488;19.026;2023-01-27T10:41:37;99975.88;;;1.50;67.29
68107;BME280;54892;47.488;19.026;2023-01-27T10:44:49;99970.72;;;1.70;67.11
68107;BME280;54892;47.488;19.026;2023-01-27T10:48:04;99965.75;;;1.75;67.12
68107;BME280;54892;47.488;19.026;2023-01-27T10:51:14;99962.53;;;1.66;67.64
68107;BME280;54892;47.488;19.026;2023-01-27T10:54:21;99966.12;;;1.65;68.07
68107;BME280;54892;47.488;19.026;2023-01-27T10:57:28;99960.91;;;1.65;68.57
68107;BME280;54892;47.488;19.026;2023-01-27T11:00:33;99954.09;;;1.58;68.63
68107;BME280;54892;47.488;19.026;2023-01-27T11:04:01;99950.50;;;1.52;68.63
68107;BME280;54892;47.488;19.026;2023-01-27T11:07:06;99956.13;;;1.69;69.20
68107;BME280;54892;47.488;19.026;2023-01-27T11:10:12;99947.69;;;1.54;70.36
68107;BME280;54892;47.488;19.026;2023-01-27T11:13:19;99943.47;;;1.46;71.37
68107;BME280;54892;47.488;19.026;2023-01-27T11:16:22;99945.28;;;1.52;72.37
68107;BME280;54892;47.488;19.026;2023-01-27T11:19:31;99945.31;;;1.65;71.93
68107;BME280;54892;47.488;19.026;2023-01-27T11:22:36;99937.66;;;1.50;nan
68107;BME280;54892;47.488;19.026;2023-01-27T11:25:45;99945.63;;;1.35;75.13
68107;BME280;54892;47.488;19.026;2023-01-27T11:28:54;99942.06;;;1.43;75.03
68107;BME280;54892;47.488;19.026;2023-01-27T11:32:03;99938.81;;;1.34;75.10
68107;BME280;54892;47.488;19.026;2023-01-27T11:35:08;99934.19;;;1.23;76.08
68107;BME280;54892;47.488;19.026;2023-01-27T11:38:13;99936.81;;;1.30;76.32
68107;BME280;54892;47.488;19.026;2023-01-27T11:41:18;99932.13;;;1.05;76.99
68107;BME280;54892;47.488;19.026;2023-01-27T11:44:23;99925.56;;;1.16;76.92
68107;BME280;54892;47.488;19.026;2023-01-27T11:47:28;99922.00;;;1.24;76.30
68107;BME280;54892;47.488;19.026;2023-01-27T11:50:33;99921.00;;;1.25;76.75
68107;BME280;54892;47.488;19.026;2023-01-27T11:53:37;99906.50;;;1.02;77.13
68107;BME280;54892;47.488;19.026;2023-01-27T11:56:43;99912.34;;;1.17;77.16
68107;BME280;54892;47.488;19.026;2023-01-27T11:59:49;99900.97;;;1.18;77.64
68107;BME280;54892;47.488;19.026;2023-01-27T12:02:57;99890.41;;;1.33;77.84
68107;BME280;54892;47.488;19.026;2023-01-27T12:06:04;99891.66;;;1.51;76.88
68107;BME280;54892;47.488;19.026;2023-01-27T12:09:29;99889.06;;;1.51;77.31
68107;BME280;54892;47.488;19.026;2023-01-27T12:12:32;99893.03;;;1.47;77.11
68107;BME280;54892;47.488;19.026;2023-01-27T12:15:45;99891.28;;;1.54;77.21
68107;BME280;54892;47.488;19.026;2023-01-27T12:18:51;99883.66;;;1.52;77.82
68107;BME280;54892;47.488;19.026;2023-01-27T12:21:56;99876.44;;;1.55;77.86
68107;BME280;54892;47.488;19.026;2023-01-27T12:25:01;99886.25;;;1.52;77.99
68107;BME280;54892;47.488;19.026;2023-01-27T12:28:06;99877.22;;;1.42;78.49
68107;BME280;54892;47.488;19.026;2023-01-27T12:31:22;99875.25;;;1.57;78.23
68107;BME280;54892;47.488;19.026;2023-01-27T12:34:30;99863.44;;;1.48;78.29
68107;BME280;54892;47.488;19.026;2023-01-27T12:37:36;99861.59;;;1.28;79.02
68107;BME280;54892;47.488;19.026;2023-01-27T12:40:40;99860.44;;;1.51;78.01
68107;BME280;54892;47.488;19.026;2023-01-27T12:43:49;99864.03;;;1.36;78.37
68107;BME280;54892;47.488;19.026;2023-01-27T12:46:59;99866.63;;;1.30;78.95
68107;BME280;54892;47.488;19.026;2023-01-27T12:50:18;99860.31;;;0.97;80.10
68107;BME280;54892;47.488;19.026;2023-01-27T12:53:22;99864.00;;;1.23;79.29
68107;BME280;54892;47.488;19.026;2023-01-27T12:56:28;99865.63;;;1.37;78.49
68107;BME280;54892;47.488;19.026;2023-01-27T12:59:35;99861.19;;;1.18;79.88
68107;BME280;54892;47.488;19.026;2023-01-27T13:02:48;99860.78;;;1.14;80.12
68107;BME280;54892;47.488;19.026;2023-01-27T13:05:52;99861.41;;;1.23;80.16
68107;BME280;54892;47.488;19.026;2023-01-27T13:08:57;99866.81;;;1.42;79.62
68107;BME280;54892;47.488;19.026;2023-01-27T13:12:03;99863.78;;;1.18;80.19
68107;BME280;54892;47.488;19.026;2023-01-27T13:15:10;99865.19;;;1.20;80.68
68107;BME280;54892;47.488;19.026;2023-01-27T13:18:18;99863.41;;;1.21;81.13
68107;BME280;54892;47.488;19.026;2023-01-27T13:21:23;99867.34;;;1.03;82.76
68107;BME280;54892;47.488;19.026;2023-01-27T13:24:30;99881.13;;;1.04;83.77
68107;BME280;54892;47.488;19.026;2023-01-27T13:27:37;99881.91;;;0.98;85.90
68107;BME280;54892;47.488;19.026;2023-01-27T13:30:42;99887.78;;;1.13;85.89
68107;BME280;54892;47.488;19.026;2023-01-27T13:33:49;99882.53;;;1.00;86.50
68107;BME280;54892;47.488;19.026;2023-01-27T13:36:54;99891.78;;;1.16;85.75
68107;BME280;54892;47.488;19.026;2023-01-27T13:40:04;99886.94;;;1.13;85.97
68107;BME280;54892;47.488;19.026;2023-01-27T13:43:08;99880.66;;;0.87;87.09
68107;BME280;54892;47.488;19.026;2023-01-27T13:46:14;99883.53;;;1.05;87.04
68107;BME280;54892;47.488;19.026;2023-01-27T13:49:27;99889.94;;;1.10;86.54
68107;BME280;54892;47.488;19.026;2023-01-27T13:52:33;99894.75;;;1.13;86.31
68107;BME280;54892;47.488;19.026;2023-01-27T13:55:45;99889.94;;;1.10;86.98
68107;BME280;54892;47.488;19.026;2023-01-27T13:58:51;99890.19;;;1.28;86.30
68107;BME280;54892;47.488;19.026;2023-01-27T14:01:59;99897.00;;;1.29;85.78
68107;BME280;54892;47.488;19.026;2023-01-27T14:05:19;99886.81;;;1.34;85.82
68107;BME280;54892;47.488;19.026;2023-01-27T14:08:38;99882.41;;;1.42;85.57
68107;BME280;54892;47.488;19.026;2023-01-27T14:11:44;99883.62;;;1.46;85.82
68107;BME280;54892;47.488;19.026;2023-01-27T14:14:50;99884.09;;;1.63;84.67
68107;BME280;54892;47.488;19.026;2023-01-27T14:17:59;99884.25;;;1.48;85.62
68107;BME280;54892;47.488;19.026;2023-01-27T14:21:11;99879.63;;;1.36;86.03
68107;BME280;54892;47.488;19.026;2023-01-27T14:24:16;99883.84;;;1.37;86.07
68107;BME280;54892;47.488;19.026;2023-01-27T14:27:25;99891.28;;;1.54;85.66
68107;BME280;54892;47.488;19.026;2023-01-27T14:30:31;99890.06;;;1.50;86.19
68107;BME280;54892;47.488;19.026;2023-01-27T14:33:41;99890.62;;;1.32;86.57
68107;BME280;54892;47.488;19.026;2023-01-27T14:36:51;99890.41;;;1.27;87.25
68107;BME280;54892;47.488;19.026;2023-01-27T14:39:59;99885.81;;;1.35;87.52
68107;BME280;54892;47.488;19.026;2023-01-27T14:43:11;99886.03;;;1.41;86.97
68107;BME280;54892;47.488;19.026;2023-01-27T14:46:20;99883.84;;;1.37;87.43
68107;BME280;54892;47.488;19.026;2023-01-27T14:49:36;99890.03;;;1.36;87.44
68107;BME280;54892;47.488;19.026;2023-01-27T14:52:45;99880.41;;;1.30;87.31
68107;BME280;54892;47.488;19.026;2023-01-27T14:55:51;99878.81;;;1.29;87.55
68107;BME280;54892;47.488;19.026;2023-01-27T14:58:58;99887.97;;;1.25;87.67
68107;BME280;54892;47.488;19.026;2023-01-27T15:02:05;99886.44;;;1.37;87.72
68107;BME280;54892;47.488;19.026;2023-01-27T15:05:17;99882.41;;;1.42;86.56
68107;BME280;54892;47.488;19.026;2023-01-27T15:08:25;99882.84;;;1.39;86.73
68107;BME280;54892;47.488;19.026;2023-01-27T15:11:39;99878.03;;;1.35;85.77
68107;BME280;54892;47.488;19.026;2023-01-27T15:14:50;99878.00;;;1.29;85.20
68107;BME280;54892;47.488;19.026;2023-01-27T15:18:02;99880.63;;;1.42;83.97
68107;BME280;54892;47.488;19.026;2023-01-27T15:21:14;99880.84;;;1.47;84.07
68107;BME280;54892;47.488;19.026;2023-01-27T15:24:26;99873.22;;;1.32;83.94
68107;BME280;54892;47.488;19.026;2023-01-27T15:27:34;99891.19;;;1.27;84.16
68107;BME280;54892;47.488;19.026;2023-01-27T15:30:37;99887.00;;;1.26;83.82
68107;BME280;54892;47.488;19.026;2023-01-27T15:33:47;99877.63;;;1.39;82.95
68107;BME280;54892;47.488;19.026;2023-01-27T15:36:58;99886.03;;;1.41;82.79
68107;BME280;54892;47.488;19.026;2023-01-27T15:40:08;99894.06;;;1.52;82.34
68107;BME280;54892;47.488;19.026;2023-01-27T15:43:18;99893.87;;;1.54;81.90
68107;BME280;54892;47.488;19.026;2023-01-27T15:46:29;99902.06;;;1.58;81.46
68107;BME280;54892;47.488;19.026;2023-01-27T15:49:34;99907.88;;;1.53;81.05
68107;BME280;54892;47.488;19.026;2023-01-27T15:52:40;99917.22;;;1.41;80.94
68107;BME280;54892;47.488;19.026;2023-01-27T15:55:48;99907.06;;;1.52;80.96
68107;BME280;54892;47.488;19.026;2023-01-27T15:58:54;99905.66;;;1.50;80.35
68107;BME280;54892;47.488;19.026;2023-01-27T16:01:59;99897.84;;;1.50;80.32
68107;BME280;54892;47.488;19.026;2023-01-27T16:05:04;99894.87;;;1.60;79.85
68107;BME280;54892;47.488;19.026;2023-01-27T16:08:10;99895.44;;;1.48;80.06
68107;BME280;54892;47.488;19.026;2023-01-27T16:11:21;99896.41;;;1.41;79.46
68107;BME280;54892;47.488;19.026;2023-01-27T16:14:39;99905.44;;;1.45;79.36
68107;BME280;54892;47.488;19.026;2023-01-27T16:17:54;99905.69;;;1.63;78.83
68107;BME280;54892;47.488;19.026;2023-01-27T16:20:59;99912.88;;;1.68;78.66
68107;BME280;54892;47.488;19.026;2023-01-27T16:24:04;99905.28;;;1.73;78.21
68107;BME280;54892;47.488;19.026;2023-01-27T16:27:18;99910.50;;;1.66;77.71